Estación Meteorológica Peña el Pijo (Robertgarden) [ 12/11/19 23:28:07 CET ]

Fecha Hora Presion(HPa) Temp (°C) Humedad % Rocio (°C) Viento ( m/s) Direccion Lluvia 1Hora(mm) Lluvia 24H(mm) LLuvia Total(mm)
2019-Sep-03 01:01:47 1014.100 14.2 89 12.4       5.18 390.28
2019-Sep-03 02:02:00 1014.300 13.8 89 12.0       5.18 390.28
2019-Sep-03 03:01:44 1014.300 13.5 89 11.7       5.18 390.28
2019-Sep-03 04:03:15 1013.900 13.2 90 11.6       5.18 390.28
2019-Sep-03 05:01:38 1013.800 12.7 90 11.1       5.18 390.28
2019-Sep-03 06:01:46 1014.000 12.1 90 10.5       5.18 390.28
2019-Sep-03 07:01:39 1014.100 11.6 90 10.0       5.18 390.28
2019-Sep-03 08:02:01 1014.500 11.8 91 10.4       5.18 390.28
2019-Sep-03 09:01:51 1014.900 14.4 92 13.1       5.18 390.28
2019-Sep-03 10:01:51 1014.800 17.8 91 16.4       5.18 390.28
2019-Sep-03 11:01:51 1014.900 20.5 82 17.3       5.18 390.28
2019-Sep-03 12:01:46 1014.700 25.2 66 18.4       5.18 390.28
2019-Sep-03 13:01:47 1014.200 29.8 46 16.9       5.18 390.28
2019-Sep-03 14:01:56 1013.900 31.8 37 15.2       5.18 390.28
2019-Sep-03 15:01:44 1013.800 29.9 39 14.5       5.18 390.28
2019-Sep-03 16:02:06 1014.300 24.7 52 14.2       5.18 390.28
2019-Sep-03 17:01:55 1014.600 21.5 63 14.1     0.51 1.55 390.80
2019-Sep-03 18:01:56 1013.800 19.3 77 15.2     0.51 1.03 391.32
2019-Sep-03 19:01:53 1013.900 20.9 74 16.0       1.03 391.32
2019-Sep-03 20:01:48 1014.200 19.9 76 15.6       1.03 391.32
2019-Sep-03 21:01:40 1014.300 18.1 80 14.6       1.03 391.32
2019-Sep-03 22:02:04 1014.600 17.1 83 14.2       1.03 391.32
2019-Sep-03 23:01:55 1014.700 16.9 84 14.2       1.03 391.32

Temperatura Máxima:31°    Temperatura Mínima:11°
Presión Máxima:1014.900 Hpa    Presión Mínima:1013.800 Hpa


Volver